Thunder radar more information blitzortung!


Radar de pluja more information rain snow radar


Visita la nostra xarxa de llocs de meteo:

Template documentation
and downloads

And another site



No particular awareness of the weather is required.    There are no Weather-warnings

Pagina Historial Weather Underground text

Diari Resum Octubre 30, 2017 Unitats:  Imperial    Mètric   Tant
« Previous Dia
SegĂźent Dia »
Diari Setmana Mensual Anual Personalitzada
  Maxima: Minima: Media:
Temperatura: 65.3 °F 49.3 °F 59.9 °F
Punt de rosada: 50.2 °F 39.7 °F 48.6 °F
Humitat: 79 % 55 % 67 %
Wind Speed: 10.4 mph 0 mph 2.9 mph
RĂ fegues de vent: 10.4 mph - -
Vent:- - East
Pression baro: 30.2 in 30 in -
Precipitacions: 0 in    
Historical Graphs
 
 
Dades de taula per Octubre 30, 2017
Temps Temperatura Punt de rosada Pression baro Vent Wind Speed RĂ fegues de vent Humitat Rainfall Rate (Hourly)
00:01 55.6 °F 40.1 °F 30 in Calm     56 % 0 in
00:06 55.6 °F 39.7 °F 30 in WNW 1.2 mph 1.2 mph 55 % 0 in
01:35 49.3 °F 41 °F 30.1 in Calm   1 mph 73 % 0 in
01:45 50 °F 41.7 °F 30.1 in NW 1 mph 1 mph 73 % 0 in
01:55 50.9 °F 42.6 °F 30 in North 1 mph 4 mph 73 % 0 in
02:05 51.8 °F 43.3 °F 30 in NE 1 mph 2 mph 73 % 0 in
02:15 52.2 °F 43.3 °F 30.1 in NE 3 mph 4 mph 72 % 0 in
02:25 52.9 °F 44.1 °F 30.1 in NE 2 mph 3 mph 72 % 0 in
02:35 53.6 °F 44.4 °F 30.1 in NE 3 mph 4 mph 71 % 0 in
02:45 54 °F 44.8 °F 30.1 in NE 5 mph 6 mph 71 % 0 in
02:55 54.9 °F 45.3 °F 30.1 in NNE 5 mph 6 mph 70 % 0 in
03:05 55 °F 45.3 °F 30.1 in NE 3 mph 6 mph 70 % 0 in
03:15 55.6 °F 45.7 °F 30.1 in NE 3 mph 6 mph 69 % 0 in
03:25 55.9 °F 45.9 °F 30.1 in NNE 3 mph 6 mph 69 % 0 in
03:35 56.5 °F 46 °F 30.1 in NNE 5 mph 5 mph 68 % 0 in
09:45 57 °F 46.6 °F 30.1 in ENE 4.6 mph 4.6 mph 68 % 0 in
09:50 57 °F 46.6 °F 30.1 in NE 5.9 mph 5.9 mph 68 % 0 in
09:55 57.2 °F 46.2 °F 30.1 in NNE 4.6 mph 4.6 mph 67 % 0 in
10:00 57.2 °F 46.2 °F 30.1 in NE 8.1 mph 8.1 mph 67 % 0 in
10:05 57 °F 46.2 °F 30.1 in ENE 6.9 mph 6.9 mph 67 % 0 in
10:10 57.9 °F 46.9 °F 30.1 in East 2.6 mph 3.1 mph 67 % 0 in
10:15 57.9 °F 46.6 °F 30.1 in NNE 6.9 mph 6.9 mph 66 % 0 in
10:20 57.7 °F 46.6 °F 30.1 in ENE 6.9 mph 6.9 mph 66 % 0 in
10:25 57.6 °F 46.2 °F 30.1 in North 6.9 mph 6.9 mph 66 % 0 in
10:30 58.1 °F 46.8 °F 30.1 in NNE 4 mph 4 mph 66 % 0 in
10:35 58.3 °F 46.6 °F 30.1 in ENE 6.9 mph 6.9 mph 65 % 0 in
10:40 58.8 °F 47.5 °F 30.1 in NNE 4 mph 4 mph 66 % 0 in
10:45 58.1 °F 46.4 °F 30.1 in ENE 6.9 mph 6.9 mph 65 % 0 in
10:55 59.5 °F 47.8 °F 30.1 in NE 3.5 mph 3.5 mph 65 % 0 in
11:00 60.1 °F 48.4 °F 30.1 in NNW 3.5 mph 3.5 mph 65 % 0 in
11:05 60.4 °F 48.6 °F 30.1 in East 3.5 mph 3.5 mph 65 % 0 in
11:10 60.4 °F 48.2 °F 30 in North 5.8 mph 5.8 mph 64 % 0 in
11:15 60.6 °F 48.4 °F 30 in ENE 2.3 mph 2.3 mph 64 % 0 in
11:20 60.6 °F 48.4 °F 30 in NNE 4.6 mph 4.6 mph 64 % 0 in
11:25 60.6 °F 48.4 °F 30.1 in WNW 4.6 mph 4.6 mph 64 % 0 in
11:30 60.8 °F 48 °F 30.1 in ENE 4 mph 4 mph 63 % 0 in
11:35 60.6 °F 47.8 °F 30.1 in ENE 5.8 mph 5.8 mph 63 % 0 in
11:40 60.3 °F 47.7 °F 30.1 in ENE 5.8 mph 5.8 mph 63 % 0 in
11:45 60.6 °F 47.8 °F 30.1 in NE 6.4 mph 6.4 mph 63 % 0 in
11:50 60.4 °F 47.8 °F 30.1 in NE 5.9 mph 5.9 mph 63 % 0 in
11:55 60.4 °F 47.8 °F 30.1 in ESE 7.6 mph 7.6 mph 63 % 0 in
12:00 60.4 °F 47.8 °F 30.1 in North 6.9 mph 6.9 mph 63 % 0 in
12:05 60.6 °F 47.8 °F 30.1 in ENE 6.9 mph 6.9 mph 63 % 0 in
12:10 61.5 °F 48.7 °F 30.1 in ENE 5.4 mph 5.4 mph 63 % 0 in
12:15 62.1 °F 49.3 °F 30.1 in NNE 3.5 mph 3.5 mph 63 % 0 in
12:20 62.1 °F 49.3 °F 30.1 in NE 3.5 mph 3.5 mph 63 % 0 in
12:25 62.4 °F 49.3 °F 30.1 in NE 3.1 mph 3.1 mph 62 % 0 in
12:30 62.4 °F 49.3 °F 30.1 in ENE 5.8 mph 5.8 mph 62 % 0 in
12:35 62.2 °F 49.1 °F 30.1 in ENE 5.8 mph 5.8 mph 62 % 0 in
12:40 61.9 °F 48.4 °F 30.1 in NNW 6.9 mph 6.9 mph 61 % 0 in
12:45 61.7 °F 48 °F 30.1 in NNE 10.4 mph 10.4 mph 61 % 0 in
12:50 62.2 °F 48.6 °F 30.1 in NNE 6.4 mph 6.4 mph 61 % 0 in
12:55 61.7 °F 48 °F 30.1 in North 8.1 mph 8.1 mph 61 % 0 in
13:00 62.1 °F 48.4 °F 30.1 in East 9.2 mph 9.2 mph 61 % 0 in
13:05 62.1 °F 48.4 °F 30.1 in NW 5.8 mph 6 mph 61 % 0 in
13:10 61.9 °F 48.4 °F 30.1 in ENE 10.4 mph 10.4 mph 61 % 0 in
13:15 61.9 °F 47.8 °F 30.1 in North 6.9 mph 6.9 mph 60 % 0 in
13:20 62.6 °F 48.6 °F 30.1 in NNW 4.6 mph 4.6 mph 60 % 0 in
13:30 62.6 °F 48 °F 30 in North 6.9 mph 6.9 mph 59 % 0 in
13:35 63 °F 48.9 °F 30 in NNE 3.5 mph 3.5 mph 60 % 0 in
13:40 63 °F 48.9 °F 30 in ENE 10.2 mph 10.2 mph 60 % 0 in
13:42 62.8 °F 48.2 °F 30 in NE 10.4 mph 10.4 mph 59 % 0 in
13:47 63 °F 48.4 °F 30 in ENE 4.6 mph 4.6 mph 59 % 0 in
13:52 63.3 °F 48.7 °F 30 in NNE 4.9 mph 4.9 mph 59 % 0 in
13:57 63.3 °F 48.7 °F 30 in NNE 4.6 mph 4.6 mph 59 % 0 in
14:02 63.5 °F 48.9 °F 30 in NNE 4.6 mph 4.6 mph 59 % 0 in
14:07 63.7 °F 49.1 °F 30 in NNE 4.6 mph 4.6 mph 59 % 0 in
14:12 63.5 °F 48.6 °F 30 in ENE 8.1 mph 8.1 mph 58 % 0 in
14:17 63.7 °F 48.6 °F 30 in ENE 5.8 mph 5.8 mph 58 % 0 in
14:22 63.9 °F 48.7 °F 30 in NNE 5.8 mph 5.8 mph 58 % 0 in
14:27 63.9 °F 48.7 °F 30 in NNE 5.8 mph 5.8 mph 58 % 0 in
14:32 64.2 °F 49.1 °F 30 in NNE 3.5 mph 3.5 mph 58 % 0 in
14:37 64.4 °F 49.3 °F 30 in ENE 5.8 mph 5.8 mph 58 % 0 in
14:42 64.4 °F 49.3 °F 30 in NE 5.4 mph 5.4 mph 58 % 0 in
14:47 64.6 °F 49.5 °F 30 in NNE 4.6 mph 4.6 mph 58 % 0 in
14:52 64.6 °F 48.9 °F 30 in NNE 5.4 mph 5.4 mph 57 % 0 in
14:57 64.6 °F 48.9 °F 30 in NE 6.9 mph 6.9 mph 57 % 0 in
15:02 64.4 °F 48.7 °F 30 in North 4.6 mph 4.6 mph 57 % 0 in
15:07 64.6 °F 48.9 °F 30 in NNE 4.6 mph 4.6 mph 57 % 0 in
15:12 64.6 °F 48.9 °F 30 in West 5.8 mph 5.8 mph 57 % 0 in
15:17 64.8 °F 49.3 °F 30 in North 5.8 mph 5.8 mph 57 % 0 in
15:22 64.8 °F 49.3 °F 30 in NW 2.6 mph 2.6 mph 57 % 0 in
15:27 64.9 °F 49.3 °F 30 in ENE 4.6 mph 4.6 mph 57 % 0 in
15:32 64.9 °F 49.3 °F 30 in NNE 4 mph 4 mph 57 % 0 in
15:37 65.1 °F 49.5 °F 30 in NNE 3.5 mph 3.5 mph 57 % 0 in
15:42 65.1 °F 49.5 °F 30 in NNE 2.3 mph 2.3 mph 57 % 0 in
15:47 65.3 °F 49.6 °F 30 in ESE 3.5 mph 3.5 mph 57 % 0 in
15:52 65.3 °F 49.6 °F 30 in ENE 3.5 mph 3.5 mph 57 % 0 in
15:57 65.1 °F 49.5 °F 30 in NE 4.3 mph 4.3 mph 57 % 0 in
16:02 65.1 °F 48.9 °F 30 in North 3.5 mph 3.5 mph 56 % 0 in
16:07 65.1 °F 48.9 °F 30 in NNE 3.5 mph 3.5 mph 56 % 0 in
16:12 65.3 °F 49.6 °F 30 in NW 1.4 mph 1.4 mph 57 % 0 in
16:17 65.1 °F 48.9 °F 30 in NE 4.6 mph 4.6 mph 56 % 0 in
16:22 65.1 °F 49.5 °F 30 in NNE 2.3 mph 2.3 mph 57 % 0 in
16:27 65.1 °F 48.9 °F 30 in ENE 2.9 mph 2.9 mph 56 % 0 in
16:32 64.9 °F 48.9 °F 30 in ENE 3.5 mph 3.5 mph 56 % 0 in
16:37 64.8 °F 49.3 °F 30 in NE 3.5 mph 3.5 mph 57 % 0 in
16:42 64.8 °F 49.3 °F 30 in NNE 3.3 mph 3.3 mph 57 % 0 in
16:52 64.6 °F 48.9 °F 30 in East 4.6 mph 4.6 mph 57 % 0 in
16:57 64.4 °F 49.3 °F 30 in ENE 3.5 mph 3.5 mph 58 % 0 in
17:02 64 °F 49.5 °F 30 in SE 5.8 mph 5.8 mph 59 % 0 in
17:07 63.7 °F 49.5 °F 30 in ESE 4.9 mph 4.9 mph 60 % 0 in
17:12 63.7 °F 50 °F 30 in SE 5.8 mph 5.8 mph 61 % 0 in
17:17 63.3 °F 49.6 °F 30 in ESE 5.8 mph 5.8 mph 61 % 0 in
17:22 63 °F 49.6 °F 30 in ESE 6.9 mph 6.9 mph 62 % 0 in
17:27 62.8 °F 49.6 °F 30 in ESE 3.5 mph 3.5 mph 62 % 0 in
17:32 62.8 °F 50 °F 30 in ESE 4.6 mph 4.6 mph 63 % 0 in
17:42 62.6 °F 49.8 °F 30.1 in ESE 4.6 mph 4.6 mph 63 % 0 in
17:47 62.6 °F 49.8 °F 30.1 in ENE 2.3 mph 2.3 mph 63 % 0 in
17:52 62.4 °F 50.2 °F 30.1 in East 3.8 mph 3.8 mph 64 % 0 in
17:57 62.4 °F 50.2 °F 30.1 in ESE 2.9 mph 2.9 mph 64 % 0 in
18:02 62.4 °F 50.2 °F 30.1 in ESE 3.5 mph 3.5 mph 64 % 0 in
18:07 62.2 °F 49.8 °F 30.1 in East 3.5 mph 3.5 mph 64 % 0 in
18:12 62.2 °F 49.8 °F 30.1 in ESE 4.6 mph 4.6 mph 64 % 0 in
18:15 56.7 °F 49.3 °F 30.1 in Calm   1 mph 76 % 0 in
18:17 62.2 °F 49.8 °F 30.1 in ENE 2.3 mph 2.3 mph 64 % 0 in
18:22 62.1 °F 49.6 °F 30.1 in ENE 3.5 mph 3.5 mph 64 % 0 in
18:25 56.5 °F 49.5 °F 30.1 in Calm   2 mph 77 % 0 in
18:27 62.1 °F 49.6 °F 30.1 in ENE 2.6 mph 2.6 mph 64 % 0 in
18:32 62.1 °F 49.6 °F 30.1 in ENE 3.5 mph 3.5 mph 64 % 0 in
18:35 56.7 °F 49.5 °F 30.1 in NNE 2 mph 2 mph 77 % 0 in
18:37 61.9 °F 49.6 °F 30.1 in East 2.6 mph 2.6 mph 64 % 0 in
18:42 61.9 °F 49.6 °F 30.1 in ENE 3.5 mph 3.5 mph 64 % 0 in
18:45 56.7 °F 49.5 °F 30.1 in NNE 2 mph 3 mph 77 % 0 in
18:47 61.9 °F 50 °F 30.1 in NE 2.3 mph 2.3 mph 65 % 0 in
18:52 61.9 °F 50 °F 30.1 in East 4.6 mph 4.6 mph 65 % 0 in
18:55 56.3 °F 48.6 °F 30.1 in NE 1 mph 3 mph 75 % 0 in
18:57 61.9 °F 50 °F 30.1 in ENE 2.3 mph 2.3 mph 65 % 0 in
19:02 61.9 °F 50 °F 30.1 in ENE 1.2 mph 1.2 mph 65 % 0 in
19:05 56.1 °F 48.4 °F 30.1 in Calm   2 mph 75 % 0 in
19:07 61.9 °F 50 °F 30.1 in ENE 1.2 mph 1.2 mph 65 % 0 in
19:12 61.9 °F 50 °F 30.1 in Calm     65 % 0 in
19:15 56.1 °F 48.4 °F 30.1 in NNE 1 mph 3 mph 75 % 0 in
19:17 61.7 °F 49.8 °F 30.1 in ESE 1.2 mph   65 % 0 in
19:22 61.7 °F 50.2 °F 30.1 in Calm     66 % 0 in
19:25 55.9 °F 48 °F 30.1 in NNE 1 mph 2 mph 75 % 0 in
19:27 61.5 °F 50.2 °F 30.1 in Calm     66 % 0 in
19:32 61.3 °F 49.8 °F 30.1 in Calm     66 % 0 in
19:35 55.9 °F 48 °F 30.1 in Calm   2 mph 75 % 0 in
19:37 61.2 °F 49.6 °F 30.1 in Calm     66 % 0 in
19:42 61 °F 49.5 °F 30.1 in Calm     66 % 0 in
19:45 55.8 °F 48 °F 30.1 in NE 1 mph 2 mph 75 % 0 in
19:47 61 °F 49.8 °F 30.1 in Calm     67 % 0 in
19:52 60.8 °F 49.8 °F 30.1 in Calm     67 % 0 in
19:55 55.8 °F 48 °F 30.1 in Calm   2 mph 75 % 0 in
19:57 60.8 °F 49.8 °F 30.1 in Calm     67 % 0 in
20:02 60.6 °F 49.6 °F 30.1 in Calm     67 % 0 in
20:05 55.9 °F 48 °F 30.1 in West 1 mph 1 mph 75 % 0 in
20:07 60.4 °F 49.8 °F 30.1 in Calm     68 % 0 in
20:12 60.3 °F 49.6 °F 30.1 in South 0.9 mph   68 % 0 in
20:15 55.9 °F 48 °F 30.1 in Calm   1 mph 75 % 0 in
20:17 60.1 °F 49.5 °F 30.1 in Calm     68 % 0 in
20:22 59.9 °F 48.9 °F 30.1 in WNW 2.2 mph 2.2 mph 67 % 0 in
20:25 56.1 °F 48.7 °F 30.1 in Calm   2 mph 76 % 0 in
20:27 59.9 °F 49.3 °F 30.1 in WNW 1.2 mph 1.2 mph 68 % 0 in
20:32 59.7 °F 49.1 °F 30.1 in Calm     68 % 0 in
20:35 56.1 °F 48.9 °F 30.1 in Calm   2 mph 77 % 0 in
20:37 59.7 °F 49.1 °F 30.1 in WNW 1.4 mph 1.4 mph 68 % 0 in
20:42 59.4 °F 49.3 °F 30.1 in WNW 1.6 mph 1.6 mph 69 % 0 in
20:45 56.1 °F 49.5 °F 30.1 in Calm     78 % 0 in
20:47 59.4 °F 49.3 °F 30.1 in West 1.2 mph 1.2 mph 69 % 0 in
20:52 59.4 °F 49.3 °F 30.1 in West 1.2 mph   69 % 0 in
20:55 55.9 °F 49.3 °F 30.1 in South 1 mph 2 mph 78 % 0 in
20:57 59.2 °F 48.9 °F 30.1 in Calm     69 % 0 in
21:02 59 °F 48.7 °F 30.1 in Calm     69 % 0 in
21:05 55.9 °F 49.3 °F 30.1 in Calm   1 mph 78 % 0 in
21:07 59.2 °F 48.9 °F 30.1 in WNW 1.4 mph 1.4 mph 69 % 0 in
21:12 59.2 °F 48.9 °F 30.1 in Calm     69 % 0 in
21:15 55.8 °F 48.9 °F 30.1 in Calm   1 mph 78 % 0 in
21:17 59.2 °F 48.9 °F 30.1 in WNW 1.4 mph   69 % 0 in
21:22 59 °F 48.7 °F 30.1 in WNW 1.4 mph   69 % 0 in
21:25 55.6 °F 48.7 °F 30.1 in Calm   1 mph 78 % 0 in
21:27 59 °F 48.7 °F 30.1 in NW 1.2 mph   69 % 0 in
21:32 59 °F 48.7 °F 30.1 in NW 1.4 mph   69 % 0 in
21:35 55.6 °F 48.7 °F 30.1 in Calm   2 mph 78 % 0 in
21:37 59 °F 49.3 °F 30.1 in NW 0.9 mph   70 % 0 in
21:42 59 °F 49.3 °F 30.1 in NW 0.9 mph   70 % 0 in
21:45 55.6 °F 48.7 °F 30.1 in ENE 1 mph 2 mph 78 % 0 in
21:47 59.2 °F 49.5 °F 30.1 in NW 1.2 mph 1.2 mph 70 % 0 in
21:52 58.8 °F 49.5 °F 30.1 in Calm     71 % 0 in
21:55 55.6 °F 48.7 °F 30.1 in Calm   1 mph 78 % 0 in
21:57 58.6 °F 49.3 °F 30.1 in ENE 1.4 mph 1.4 mph 71 % 0 in
22:02 58.6 °F 49.3 °F 30.1 in ENE 1.2 mph   71 % 0 in
22:05 55.6 °F 49.3 °F 30.1 in Calm   1 mph 79 % 0 in
22:07 58.8 °F 49.8 °F 30.1 in Calm     72 % 0 in
22:12 58.6 °F 49.6 °F 30.1 in ENE 2.3 mph 2.3 mph 72 % 0 in
22:15 55.4 °F 48.7 °F 30.1 in Calm   1 mph 78 % 0 in
22:17 58.5 °F 49.5 °F 30.1 in ENE 2.3 mph 2.3 mph 72 % 0 in
22:22 58.5 °F 49.5 °F 30.1 in ENE 1.2 mph   72 % 0 in
22:25 55.4 °F 48.7 °F 30.2 in Calm   2 mph 78 % 0 in
22:27 58.3 °F 49.6 °F 30.1 in ENE 1.2 mph   73 % 0 in
22:32 58.5 °F 49.8 °F 30.1 in ENE 1.4 mph   73 % 0 in
22:35 55.4 °F 48.7 °F 30.2 in Calm     78 % 0 in
22:37 58.3 °F 49.6 °F 30.1 in ENE 1.4 mph 1.4 mph 73 % 0 in
22:42 58.1 °F 49.5 °F 30.1 in Calm     73 % 0 in
22:45 55.6 °F 48.7 °F 30.2 in NNE 1 mph 2 mph 78 % 0 in
22:47 57.9 °F 49.3 °F 30.1 in NE 1.4 mph 1.4 mph 73 % 0 in
22:52 57.7 °F 49.5 °F 30.1 in NE 1.2 mph   74 % 0 in
22:55 55.4 °F 48.7 °F 30.2 in Calm   2 mph 78 % 0 in
23:05 55.4 °F 48.7 °F 30.2 in Calm     78 % 0 in
23:07 57.6 °F 49.3 °F 30.1 in NE 1.2 mph   74 % 0 in
23:12 57.2 °F 48.9 °F 30.1 in Calm     74 % 0 in
23:15 55.4 °F 48 °F 30.2 in West 2 mph 2 mph 76 % 0 in
23:17 57.2 °F 48.9 °F 30.1 in Calm     74 % 0 in
23:22 57.2 °F 48.9 °F 30.1 in Calm     74 % 0 in
23:25 55.8 °F 47.7 °F 30.2 in WSW 3 mph 3 mph 74 % 0 in
23:27 57 °F 49.3 °F 30.1 in Calm     75 % 0 in
23:32 57 °F 49.3 °F 30.1 in ENE 2.3 mph 2.3 mph 75 % 0 in
23:35 55.9 °F 47.5 °F 30.2 in WSW 1 mph 4 mph 73 % 0 in
23:37 57 °F 49.3 °F 30.1 in ENE 1.2 mph 1.2 mph 75 % 0 in
23:42 57 °F 49.3 °F 30.1 in Calm     75 % 0 in
23:45 55.8 °F 46.6 °F 30.2 in WSW 1 mph 1 mph 71 % 0 in
23:47 57 °F 49.3 °F 30.1 in ENE 1.2 mph   75 % 0 in
23:52 57 °F 49.3 °F 30.1 in Calm     75 % 0 in
23:55 55.8 °F 46 °F 30.2 in NW 3 mph 4 mph 70 % 0 in
23:57 56.8 °F 48.9 °F 30.1 in Calm     75 % 0 in
Meteo Sesrovires
Elogis d' Weather Underground - 3.75 mb

Guio original per  Jim McMurry - jmcmurry@mwt.net Adaptat per a la plantilla per  Wim van der Kuil - Leuven-Template.eu

Trobareu la nostra informacio del temps tambe a:

Weather Underground

AWEKAS